Terminal Aerodrome Forecast
Issued by NWS Wilmington, OH

Current Version | Previous Version | Text Only | Print | Product List | Glossary Off
Versions: 1 2 3 4 5 6 7 8 9 10 11 12 13 14 15 16 17 18 19 20 21 22

000
FTUS41 KILN 221200 AAA
TAFILN
TAF AMD
KILN 221256Z 2213/2312 36010KT P6SM SCT025
      TEMPO 2214/2217 BKN025
     FM221700 01008KT P6SM BKN035
     FM222000 35010KT P6SM SCT035
     FM230100 01004KT P6SM SKC
      TEMPO 2309/2311 3SM BR=

USA.gov is the U.S. government's official web portal to all federal, state and local government web resources and services.